createdAt,value
2022-08-26T00:00:59.156Z,35.70
2022-08-26T00:03:26.555Z,35.50
2022-08-26T00:05:54.506Z,35.43
2022-08-26T00:08:21.451Z,34.10
2022-08-26T00:10:48.252Z,33.70
2022-08-26T00:13:15.893Z,32.67
2022-08-26T00:15:47.095Z,31.73
2022-08-26T00:18:21.892Z,31.47
2022-08-26T00:20:49.667Z,30.80
2022-08-26T00:23:16.680Z,29.73
2022-08-26T00:25:43.513Z,31.60
2022-08-26T00:28:12.528Z,28.33
2022-08-26T00:30:40.991Z,29.53
2022-08-26T00:33:08.327Z,27.00
2022-08-26T00:35:35.090Z,26.60
2022-08-26T00:38:03.637Z,26.23
2022-08-26T00:40:32.216Z,25.43
2022-08-26T00:42:59.338Z,25.57
2022-08-26T00:45:26.084Z,25.57
2022-08-26T00:48:01.116Z,24.50
2022-08-26T00:50:31.293Z,26.77
2022-08-26T00:52:59.003Z,24.87
2022-08-26T00:55:27.496Z,24.63
2022-08-26T00:58:05.652Z,23.20
2022-08-26T01:00:32.770Z,23.10
2022-08-26T01:03:01.002Z,22.33
2022-08-26T01:05:28.235Z,22.40
2022-08-26T01:07:57.289Z,23.30
2022-08-26T01:10:28.010Z,24.03
2022-08-26T01:12:58.148Z,25.13
2022-08-26T01:15:26.975Z,24.63
2022-08-26T01:17:57.974Z,26.27
2022-08-26T01:20:34.703Z,25.10
2022-08-26T01:23:06.127Z,27.50
2022-08-26T01:25:37.630Z,27.13
2022-08-26T01:28:08.296Z,27.10
2022-08-26T01:30:35.433Z,26.90
2022-08-26T01:33:03.617Z,26.70
2022-08-26T01:35:30.697Z,25.27
2022-08-26T01:37:57.523Z,26.43
2022-08-26T01:40:26.381Z,24.33
2022-08-26T01:42:53.832Z,24.67
2022-08-26T01:45:22.766Z,24.83
2022-08-26T01:47:56.925Z,26.87
2022-08-26T01:50:30.418Z,24.80
2022-08-26T01:52:58.925Z,25.37
2022-08-26T01:55:33.004Z,25.47
2022-08-26T01:58:02.975Z,25.47
2022-08-26T02:00:29.630Z,23.57
2022-08-26T02:03:17.282Z,22.93
2022-08-26T02:06:09.145Z,21.50
2022-08-26T02:08:44.570Z,22.90
2022-08-26T02:11:11.879Z,22.27
2022-08-26T02:13:40.216Z,23.33
2022-08-26T02:16:08.433Z,21.43
2022-08-26T02:18:37.184Z,21.80
2022-08-26T02:21:04.424Z,21.47
2022-08-26T02:23:33.400Z,20.60
2022-08-26T02:26:04.051Z,20.00
2022-08-26T02:28:33.265Z,20.00
2022-08-26T02:30:59.909Z,19.97
2022-08-26T02:33:29.518Z,20.03
2022-08-26T02:35:56.423Z,18.20
2022-08-26T02:38:23.455Z,19.13
2022-08-26T02:40:50.304Z,18.37
2022-08-26T02:43:17.847Z,17.93
2022-08-26T02:45:44.564Z,17.70
2022-08-26T02:48:12.989Z,19.80
2022-08-26T02:50:40.468Z,17.60
2022-08-26T02:53:09.518Z,17.27
2022-08-26T02:55:36.783Z,16.43
2022-08-26T02:58:03.621Z,17.70
2022-08-26T03:00:31.390Z,17.13
2022-08-26T03:02:58.674Z,16.50
2022-08-26T03:05:25.605Z,15.73
2022-08-26T03:07:52.788Z,16.07
2022-08-26T03:10:21.200Z,15.57
2022-08-26T03:12:48.295Z,16.53
2022-08-26T03:15:17.661Z,17.53
2022-08-26T03:17:46.241Z,17.33
2022-08-26T03:20:13.682Z,16.40
2022-08-26T03:22:42.780Z,15.87
2022-08-26T03:25:10.210Z,16.50
2022-08-26T03:27:36.980Z,15.63
2022-08-26T03:30:22.706Z,16.10
2022-08-26T03:32:49.461Z,15.40
2022-08-26T03:35:16.643Z,14.77
2022-08-26T03:37:43.627Z,14.70
2022-08-26T03:40:11.735Z,16.53
2022-08-26T03:42:39.426Z,15.10
2022-08-26T03:45:06.700Z,14.57
2022-08-26T03:47:34.048Z,15.33
2022-08-26T03:50:00.923Z,14.43
2022-08-26T03:52:27.596Z,15.33
2022-08-26T03:54:54.417Z,15.03
2022-08-26T03:57:21.128Z,15.47
2022-08-26T03:59:48.995Z,14.40
2022-08-26T04:02:16.078Z,13.57
2022-08-26T04:04:43.481Z,13.03
2022-08-26T04:07:10.261Z,14.03
2022-08-26T04:09:36.990Z,12.97
2022-08-26T04:12:04.433Z,13.67
2022-08-26T04:14:32.333Z,13.67
2022-08-26T04:16:59.166Z,13.03
2022-08-26T04:19:27.170Z,12.27
2022-08-26T04:21:54.271Z,12.60
2022-08-26T04:24:22.687Z,12.37
2022-08-26T04:26:50.887Z,13.13
2022-08-26T04:29:24.065Z,13.87
2022-08-26T04:31:55.269Z,13.53
2022-08-26T04:34:28.351Z,12.13
2022-08-26T04:36:56.149Z,13.20
2022-08-26T04:39:22.762Z,11.40
2022-08-26T04:41:50.288Z,11.73
2022-08-26T04:44:17.952Z,12.90
2022-08-26T04:46:44.660Z,11.47
2022-08-26T04:49:11.796Z,12.13
2022-08-26T04:51:39.156Z,10.90
2022-08-26T04:54:07.096Z,11.67
2022-08-26T04:56:35.800Z,10.30
2022-08-26T04:59:03.905Z,11.37
2022-08-26T05:01:33.295Z,10.43
2022-08-26T05:04:08.189Z,10.77
2022-08-26T05:06:37.081Z,11.67
2022-08-26T05:09:04.392Z,11.67
2022-08-26T05:11:31.116Z,11.33
2022-08-26T05:14:01.625Z,10.70
2022-08-26T05:16:30.415Z,10.70
2022-08-26T05:18:57.573Z,10.70
2022-08-26T05:21:25.630Z,10.37
2022-08-26T05:23:55.054Z,10.37
2022-08-26T05:26:23.320Z,9.40
2022-08-26T05:28:50.337Z,9.87
2022-08-26T05:31:18.189Z,9.80
2022-08-26T05:33:45.713Z,10.37
2022-08-26T05:36:15.209Z,10.67
2022-08-26T05:38:42.348Z,9.97
2022-08-26T05:41:15.056Z,9.60
2022-08-26T05:43:43.845Z,9.50
2022-08-26T05:46:10.801Z,9.70
2022-08-26T05:48:38.658Z,10.30
2022-08-26T05:51:11.884Z,10.17
2022-08-26T05:53:40.701Z,9.70
2022-08-26T05:56:11.706Z,9.33
2022-08-26T05:58:39.388Z,9.53
2022-08-26T06:01:14.447Z,9.53
2022-08-26T06:03:44.509Z,9.00
2022-08-26T06:06:13.467Z,9.53
2022-08-26T06:08:40.451Z,8.67
2022-08-26T06:11:08.402Z,9.03
2022-08-26T06:13:45.155Z,8.87
2022-08-26T06:16:14.977Z,8.77
2022-08-26T06:18:43.227Z,9.13
2022-08-26T06:21:17.508Z,9.03
2022-08-26T06:24:20.579Z,8.50
2022-08-26T06:26:55.188Z,8.53
2022-08-26T06:29:24.143Z,9.43
2022-08-26T06:31:52.101Z,8.80
2022-08-26T06:34:18.852Z,8.67
2022-08-26T06:36:47.340Z,8.33
2022-08-26T06:39:15.192Z,8.97
2022-08-26T06:41:45.078Z,8.57
2022-08-26T06:44:17.539Z,8.00
2022-08-26T06:46:45.773Z,7.93
2022-08-26T06:49:13.302Z,7.70
2022-08-26T06:51:40.894Z,8.10
2022-08-26T06:54:08.105Z,8.40
2022-08-26T06:56:36.823Z,7.47
2022-08-26T06:59:03.988Z,7.67
2022-08-26T07:01:35.501Z,7.30
2022-08-26T07:04:10.432Z,7.40
2022-08-26T07:06:43.191Z,7.13
2022-08-26T07:09:12.580Z,6.63
2022-08-26T07:11:42.763Z,6.50
2022-08-26T07:14:09.599Z,5.77
2022-08-26T07:16:36.502Z,6.23
2022-08-26T07:19:10.588Z,5.23
2022-08-26T07:21:40.506Z,5.47
2022-08-26T07:24:07.587Z,5.77
2022-08-26T07:26:34.271Z,5.10
2022-08-26T07:29:01.848Z,5.87
2022-08-26T07:31:32.520Z,4.50
2022-08-26T07:34:01.549Z,4.40
2022-08-26T07:36:30.417Z,4.83
2022-08-26T07:38:57.463Z,4.60
2022-08-26T07:41:25.857Z,4.07
2022-08-26T07:43:53.680Z,4.23
2022-08-26T07:46:20.736Z,4.53
2022-08-26T07:48:54.785Z,4.80
2022-08-26T07:51:22.624Z,4.50
2022-08-26T07:53:52.625Z,4.30
2022-08-26T07:56:20.208Z,4.23
2022-08-26T07:58:51.488Z,3.87
2022-08-26T08:01:20.029Z,4.07
2022-08-26T08:03:46.712Z,4.60
2022-08-26T08:06:21.145Z,4.03
2022-08-26T08:08:50.777Z,4.37
2022-08-26T08:11:21.166Z,4.33
2022-08-26T08:13:48.421Z,4.23
2022-08-26T08:16:15.728Z,4.30
2022-08-26T08:18:42.351Z,4.33
2022-08-26T08:21:21.350Z,4.27
2022-08-26T08:23:51.911Z,3.77
2022-08-26T08:26:18.704Z,3.83
2022-08-26T08:28:48.014Z,3.53
2022-08-26T08:31:21.638Z,3.30
2022-08-26T08:33:59.859Z,3.83
2022-08-26T08:36:26.707Z,3.73
2022-08-26T08:39:02.599Z,3.50
2022-08-26T08:41:48.042Z,3.63
2022-08-26T08:44:20.065Z,3.60
2022-08-26T08:46:58.468Z,2.97
2022-08-26T08:49:26.074Z,3.00
2022-08-26T08:52:00.832Z,3.20
2022-08-26T08:54:31.550Z,3.53
2022-08-26T08:57:10.945Z,3.30
2022-08-26T08:59:42.772Z,3.30
2022-08-26T09:02:15.268Z,3.57
2022-08-26T09:04:49.179Z,3.60
2022-08-26T09:07:25.128Z,3.63
2022-08-26T09:09:57.350Z,3.27
2022-08-26T09:12:29.446Z,3.17
2022-08-26T09:15:01.621Z,3.23
2022-08-26T09:17:28.602Z,3.40
2022-08-26T09:20:03.309Z,3.27
2022-08-26T09:22:31.245Z,3.30
2022-08-26T09:24:58.106Z,2.90
2022-08-26T09:27:52.106Z,3.00
2022-08-26T09:30:24.724Z,3.23
2022-08-26T09:33:02.288Z,3.20
2022-08-26T09:35:34.089Z,2.87
2022-08-26T09:38:00.758Z,3.17
2022-08-26T09:40:34.962Z,3.27
2022-08-26T09:43:04.701Z,2.87
2022-08-26T09:45:33.769Z,3.17
2022-08-26T09:48:01.858Z,3.73
2022-08-26T09:50:31.023Z,3.60
2022-08-26T09:53:16.105Z,3.80
2022-08-26T09:55:44.594Z,3.30
2022-08-26T09:58:15.553Z,3.83
2022-08-26T10:00:52.858Z,3.60
2022-08-26T10:03:31.605Z,3.40
2022-08-26T10:05:58.652Z,3.47
2022-08-26T10:08:33.453Z,3.00
2022-08-26T10:11:02.590Z,2.90
2022-08-26T10:13:36.623Z,2.90
2022-08-26T10:16:12.498Z,2.70
2022-08-26T10:18:43.614Z,2.90
2022-08-26T10:21:20.142Z,2.80
2022-08-26T10:23:50.809Z,2.83
2022-08-26T10:26:40.779Z,3.20
2022-08-26T10:29:15.596Z,2.70
2022-08-26T10:31:45.036Z,2.77
2022-08-26T10:34:16.492Z,2.20
2022-08-26T10:37:15.522Z,2.80
2022-08-26T10:39:59.258Z,2.73
2022-08-26T10:42:28.889Z,2.47
2022-08-26T10:44:58.486Z,2.60
2022-08-26T10:47:33.368Z,2.57
2022-08-26T10:50:03.426Z,2.60
2022-08-26T10:52:36.465Z,2.70
2022-08-26T10:55:11.334Z,3.10
2022-08-26T10:57:50.487Z,2.83
2022-08-26T11:00:38.538Z,2.60
2022-08-26T11:03:22.049Z,2.73
2022-08-26T11:06:08.183Z,2.57
2022-08-26T11:08:34.950Z,2.83
2022-08-26T11:11:03.030Z,2.73
2022-08-26T11:13:48.331Z,2.80
2022-08-26T11:16:31.777Z,2.93
2022-08-26T11:18:58.458Z,2.90
2022-08-26T11:21:45.531Z,3.03
2022-08-26T11:24:33.901Z,3.40
2022-08-26T11:27:02.528Z,3.40
2022-08-26T11:30:00.033Z,2.90
2022-08-26T11:32:35.901Z,3.67
2022-08-26T11:35:05.092Z,3.27
2022-08-26T11:37:35.050Z,3.07
2022-08-26T11:40:04.064Z,2.90
2022-08-26T11:42:31.247Z,2.83
2022-08-26T11:44:58.352Z,3.27
2022-08-26T11:47:32.062Z,3.17
2022-08-26T11:50:16.980Z,3.00
2022-08-26T11:52:51.801Z,3.10
2022-08-26T11:55:19.213Z,2.87
2022-08-26T11:57:50.837Z,2.63
2022-08-26T12:00:22.380Z,2.90
2022-08-26T12:02:50.189Z,2.70
2022-08-26T12:05:25.777Z,2.70
2022-08-26T12:07:56.526Z,2.50
2022-08-26T12:10:26.061Z,2.90
2022-08-26T12:12:58.318Z,2.67
2022-08-26T12:15:25.754Z,2.83
2022-08-26T12:17:54.527Z,3.10
2022-08-26T12:20:21.391Z,2.90
2022-08-26T12:22:48.414Z,3.30
2022-08-26T12:25:21.866Z,2.77
2022-08-26T12:27:53.111Z,3.00
2022-08-26T12:30:24.483Z,2.70
2022-08-26T12:33:03.035Z,2.73
2022-08-26T12:35:47.139Z,2.40
2022-08-26T12:38:15.188Z,2.07
2022-08-26T12:40:43.526Z,2.03
2022-08-26T12:43:11.130Z,2.30
2022-08-26T12:45:41.566Z,2.33
2022-08-26T12:48:13.582Z,2.13
2022-08-26T12:50:45.894Z,2.53
2022-08-26T12:53:12.520Z,2.07
2022-08-26T12:55:44.077Z,2.77
2022-08-26T12:58:13.491Z,2.50
2022-08-26T13:00:41.557Z,2.70
2022-08-26T13:03:27.177Z,2.20
2022-08-26T13:05:53.947Z,2.57
2022-08-26T13:08:27.899Z,2.20
2022-08-26T13:11:03.070Z,1.93
2022-08-26T13:13:29.833Z,2.53
2022-08-26T13:15:56.540Z,2.40
2022-08-26T13:18:23.135Z,1.87
2022-08-26T13:20:49.830Z,2.30
2022-08-26T13:23:16.586Z,2.10
2022-08-26T13:25:43.243Z,2.20
2022-08-26T13:28:09.899Z,2.30
2022-08-26T13:30:36.576Z,2.37
2022-08-26T13:33:03.984Z,3.07
2022-08-26T13:35:30.765Z,2.77
2022-08-26T13:37:57.427Z,2.53
2022-08-26T13:40:25.966Z,2.53
2022-08-26T13:42:52.644Z,2.80
2022-08-26T13:45:19.313Z,2.87
2022-08-26T13:47:45.988Z,3.13
2022-08-26T13:50:12.740Z,2.63
2022-08-26T13:52:39.512Z,2.23
2022-08-26T13:55:07.191Z,2.77
2022-08-26T13:57:33.853Z,2.87
2022-08-26T14:00:00.523Z,2.77
2022-08-26T14:02:27.794Z,2.53
2022-08-26T14:04:55.368Z,2.77
2022-08-26T14:07:22.584Z,2.90
2022-08-26T14:09:49.175Z,2.83
2022-08-26T14:12:16.570Z,2.53
2022-08-26T14:14:43.592Z,3.13
2022-08-26T14:17:10.247Z,2.70
2022-08-26T14:19:45.365Z,2.77
2022-08-26T14:22:13.159Z,3.00
2022-08-26T14:24:39.907Z,2.43
2022-08-26T14:27:06.726Z,2.80
2022-08-26T14:29:33.428Z,2.70
2022-08-26T14:32:02.539Z,2.93
2022-08-26T14:34:29.463Z,3.13
2022-08-26T14:36:56.096Z,3.33
2022-08-26T14:39:22.760Z,3.27
2022-08-26T14:41:53.805Z,3.30
2022-08-26T14:44:22.448Z,3.40
2022-08-26T14:46:50.307Z,3.17
2022-08-26T14:49:18.514Z,3.10
2022-08-26T14:51:45.491Z,3.10
2022-08-26T14:54:12.806Z,3.47
2022-08-26T14:56:43.636Z,3.07
2022-08-26T14:59:10.712Z,3.63
2022-08-26T15:01:37.603Z,3.53
2022-08-26T15:04:04.403Z,3.07
2022-08-26T15:06:31.969Z,3.23
2022-08-26T15:08:58.897Z,3.00
2022-08-26T15:11:26.988Z,3.03
2022-08-26T15:13:53.680Z,3.03
2022-08-26T15:16:20.853Z,3.00
2022-08-26T15:18:47.565Z,3.33
2022-08-26T15:21:14.313Z,3.40
2022-08-26T15:23:41.702Z,3.93
2022-08-26T15:26:15.212Z,3.57
2022-08-26T15:28:42.063Z,3.10
2022-08-26T15:31:08.979Z,3.33
2022-08-26T15:33:36.073Z,3.27
2022-08-26T15:36:04.061Z,3.50
2022-08-26T15:38:31.268Z,3.87
2022-08-26T15:41:02.929Z,3.90
2022-08-26T15:43:30.053Z,3.67
2022-08-26T15:45:57.123Z,3.87
2022-08-26T15:48:24.624Z,4.07
2022-08-26T15:50:55.424Z,3.87
2022-08-26T15:53:22.753Z,3.50
2022-08-26T15:55:49.388Z,3.30
2022-08-26T15:58:16.872Z,3.07
2022-08-26T16:00:44.932Z,3.47
2022-08-26T16:03:11.636Z,3.33
2022-08-26T16:05:39.134Z,3.37
2022-08-26T16:08:07.047Z,3.20
2022-08-26T16:10:34.344Z,3.20
2022-08-26T16:13:01.012Z,3.10
2022-08-26T16:15:27.650Z,3.20
2022-08-26T16:17:54.319Z,2.97
2022-08-26T16:20:20.977Z,2.70
2022-08-26T16:22:48.940Z,2.70
2022-08-26T16:25:15.619Z,2.93
2022-08-26T16:27:46.857Z,2.57
2022-08-26T16:30:14.309Z,3.10
2022-08-26T16:32:40.915Z,2.80
2022-08-26T16:35:07.784Z,3.00
2022-08-26T16:37:36.506Z,2.90
2022-08-26T16:40:06.736Z,3.37
2022-08-26T16:42:33.381Z,2.80
2022-08-26T16:45:00.227Z,2.90
2022-08-26T16:47:27.163Z,2.90
2022-08-26T16:49:53.843Z,3.00
2022-08-26T16:52:20.609Z,2.40
2022-08-26T16:54:47.664Z,3.37
2022-08-26T16:57:14.359Z,3.37
2022-08-26T16:59:41.467Z,3.07
2022-08-26T17:02:08.070Z,3.23
2022-08-26T17:04:34.814Z,3.00
2022-08-26T17:07:01.549Z,3.03
2022-08-26T17:09:28.203Z,3.00
2022-08-26T17:11:54.920Z,2.90
2022-08-26T17:14:21.553Z,3.07
2022-08-26T17:16:51.225Z,2.77
2022-08-26T17:19:19.286Z,3.23
2022-08-26T17:21:46.424Z,3.27
2022-08-26T17:24:13.424Z,3.33
2022-08-26T17:26:40.222Z,2.80
2022-08-26T17:29:07.434Z,3.00
2022-08-26T17:31:34.321Z,3.33
2022-08-26T17:34:01.082Z,3.60
2022-08-26T17:36:28.447Z,3.50
2022-08-26T17:38:55.654Z,3.33
2022-08-26T17:41:22.297Z,3.57
2022-08-26T17:43:48.908Z,3.90
2022-08-26T17:46:15.560Z,3.73
2022-08-26T17:48:42.527Z,3.60
2022-08-26T17:51:10.649Z,4.27
2022-08-26T17:53:37.528Z,3.60
2022-08-26T17:56:08.810Z,3.80
2022-08-26T17:58:35.897Z,4.43
2022-08-26T18:01:03.160Z,4.80
2022-08-26T18:03:29.869Z,4.50
2022-08-26T18:05:57.421Z,4.77
2022-08-26T18:08:24.085Z,5.47
2022-08-26T18:10:50.899Z,5.63
2022-08-26T18:13:17.976Z,5.73
2022-08-26T18:15:45.534Z,5.83
2022-08-26T18:18:14.909Z,6.30
2022-08-26T18:20:43.157Z,6.40
2022-08-26T18:23:10.264Z,6.10
2022-08-26T18:25:43.917Z,5.60
2022-08-26T18:28:10.553Z,6.00
2022-08-26T18:30:37.631Z,6.07
2022-08-26T18:33:04.481Z,5.90
2022-08-26T18:35:31.173Z,6.10
2022-08-26T18:37:58.496Z,6.27
2022-08-26T18:40:36.720Z,5.70
2022-08-26T18:43:03.546Z,5.00
2022-08-26T18:45:30.475Z,4.60
2022-08-26T18:47:57.512Z,4.60
2022-08-26T18:50:24.232Z,4.70
2022-08-26T18:52:50.885Z,4.17
2022-08-26T18:55:17.484Z,4.70
2022-08-26T18:57:44.579Z,4.03
2022-08-26T19:00:11.821Z,4.37
2022-08-26T19:02:38.722Z,3.90
2022-08-26T19:05:07.085Z,3.73
2022-08-26T19:07:39.003Z,3.50
2022-08-26T19:10:06.390Z,3.20
2022-08-26T19:12:35.438Z,3.17
2022-08-26T19:15:02.668Z,2.97
2022-08-26T19:17:29.285Z,2.57
2022-08-26T19:19:55.910Z,2.23
2022-08-26T19:22:22.520Z,2.60
2022-08-26T19:24:49.157Z,2.57
2022-08-26T19:27:16.009Z,2.40
2022-08-26T19:29:42.648Z,2.70
2022-08-26T19:32:09.259Z,2.40
2022-08-26T19:34:36.472Z,2.50
2022-08-26T19:37:03.364Z,2.27
2022-08-26T19:39:30.095Z,2.40
2022-08-26T19:41:56.783Z,2.03
2022-08-26T19:44:42.387Z,2.60
2022-08-26T19:47:10.310Z,2.40
2022-08-26T19:49:37.496Z,2.57
2022-08-26T19:52:04.343Z,2.63
2022-08-26T19:54:31.024Z,2.30
2022-08-26T19:56:58.017Z,2.67
2022-08-26T19:59:24.793Z,2.60
2022-08-26T20:02:00.523Z,2.40
2022-08-26T20:04:28.505Z,2.73
2022-08-26T20:06:57.884Z,3.10
2022-08-26T20:09:27.337Z,3.30
2022-08-26T20:11:54.115Z,3.33
2022-08-26T20:14:23.865Z,3.37
2022-08-26T20:16:50.546Z,2.77
2022-08-26T20:19:37.632Z,2.80
2022-08-26T20:22:05.083Z,2.87
2022-08-26T20:24:32.662Z,2.67
2022-08-26T20:26:59.332Z,2.60
2022-08-26T20:29:25.941Z,2.40
2022-08-26T20:31:53.449Z,2.10
2022-08-26T20:34:20.749Z,2.53
2022-08-26T20:36:47.960Z,2.30
2022-08-26T20:39:14.884Z,2.93
2022-08-26T20:41:42.454Z,2.30
2022-08-26T20:44:09.527Z,2.53
2022-08-26T20:46:36.385Z,2.47
2022-08-26T20:49:04.173Z,2.90
2022-08-26T20:51:33.051Z,2.60
2022-08-26T20:53:59.732Z,2.33
2022-08-26T20:56:26.382Z,2.37
2022-08-26T20:58:54.356Z,2.70
2022-08-26T21:01:25.571Z,2.43
2022-08-26T21:03:53.139Z,2.80
2022-08-26T21:06:19.848Z,3.40
2022-08-26T21:08:48.220Z,3.43
2022-08-26T21:11:15.587Z,4.60
2022-08-26T21:14:03.455Z,5.27
2022-08-26T21:16:28.866Z,6.20
2022-08-26T21:18:55.576Z,9.87
2022-08-26T21:21:25.221Z,12.50
2022-08-26T21:23:52.055Z,14.33
2022-08-26T21:26:19.192Z,15.77
2022-08-26T21:28:46.460Z,16.83
2022-08-26T21:31:14.768Z,16.40
2022-08-26T21:33:42.196Z,17.83
2022-08-26T21:36:09.873Z,18.47
2022-08-26T21:38:37.037Z,17.50
2022-08-26T21:41:05.179Z,16.60
2022-08-26T21:43:35.065Z,14.63
2022-08-26T21:46:07.584Z,13.07
2022-08-26T21:48:35.192Z,11.63
2022-08-26T21:51:04.078Z,10.40
2022-08-26T21:53:31.207Z,8.83
2022-08-26T21:55:58.096Z,7.03
2022-08-26T21:58:24.735Z,5.77
2022-08-26T22:00:51.748Z,5.40
2022-08-26T22:03:18.583Z,4.27
2022-08-26T22:05:46.483Z,4.33
2022-08-26T22:08:13.370Z,3.53
2022-08-26T22:10:41.561Z,2.90
2022-08-26T22:13:11.304Z,2.83
2022-08-26T22:15:42.141Z,2.83
2022-08-26T22:18:09.629Z,2.20
2022-08-26T22:20:36.372Z,2.50
2022-08-26T22:23:03.135Z,2.67
2022-08-26T22:25:29.753Z,2.10
2022-08-26T22:27:56.458Z,2.20
2022-08-26T22:30:23.633Z,2.37
2022-08-26T22:32:50.503Z,2.27
2022-08-26T22:35:28.157Z,2.47
2022-08-26T22:37:57.080Z,2.00
2022-08-26T22:40:24.365Z,2.37
2022-08-26T22:42:55.631Z,2.43
2022-08-26T22:45:27.403Z,2.00
2022-08-26T22:47:54.120Z,1.90
2022-08-26T22:50:20.809Z,2.30
2022-08-26T22:52:47.456Z,2.50
2022-08-26T22:55:14.302Z,2.20
2022-08-26T22:57:43.096Z,2.00
2022-08-26T23:00:13.008Z,2.10
2022-08-26T23:02:40.417Z,2.27
2022-08-26T23:05:07.796Z,2.13
2022-08-26T23:07:35.284Z,2.00
2022-08-26T23:10:03.785Z,1.97
2022-08-26T23:12:31.453Z,2.50
2022-08-26T23:14:58.077Z,2.00
2022-08-26T23:17:24.748Z,1.90
2022-08-26T23:19:52.203Z,2.33
2022-08-26T23:22:18.857Z,2.30
2022-08-26T23:24:45.535Z,2.27
2022-08-26T23:27:12.287Z,2.20
2022-08-26T23:29:39.740Z,2.00
2022-08-26T23:32:06.578Z,2.13
2022-08-26T23:34:51.719Z,2.23
2022-08-26T23:37:19.639Z,1.83
2022-08-26T23:39:47.564Z,2.17
2022-08-26T23:42:14.201Z,2.20
2022-08-26T23:44:40.825Z,2.37
2022-08-26T23:47:07.955Z,2.23
2022-08-26T23:49:34.847Z,2.00
2022-08-26T23:52:20.518Z,2.07
2022-08-26T23:54:48.780Z,2.00
2022-08-26T23:57:16.454Z,2.00
2022-08-26T23:59:43.293Z,2.07
